^^
Saratoga-Weather Station Historical Data
Daily Summary for February 27, 2021 Units:  Both    English   Metric
Daily Weekly Monthly Yearly Custom
  High: Low: Average:
Temperature: 38.7 °F /  3.7 °C 32 °F /  0 °C 35.1 °F /  1.7 °C
Dew Point: 37.9 °F /  3.3 °C 29.7 °F /  -1.3 °C 33.6 °F /  0.9 °C
Humidity: 97% 86% 94%
Wind Speed: 4mph /  6.4km/h - 0.4mph /  0.7km/h
Wind Gust: 8mph /  12.9km/h - -
Wind- - SSE
Pressure: 30.1 in /  1019.6 hPa 29.9 in /  1013.2 hPa -
Precipitation: 0.13 in /  3.3 mm    
Historical Graphs
 
 
Tabular Data for February 27, 2021
Time Temperature Dew Point Pressure Wind Wind Speed Wind Gust Humidity Rainfall Rate (Hourly) solar
00:01 34.2 °F /  1.2 °C 30.4 °F /  -0.9 °C 30.1in /  1019.6hPa ENE 0.9mph /  1.4km/h 2mph /  3.2km/h 86% 0in /  0.0mm 0 W/m2
00:06 34 °F /  1.1 °C 30.2 °F /  -1 °C 30.1in /  1019.6hPa ENE 0.9mph /  1.4km/h 2mph /  3.2km/h 86% 0in /  0.0mm 0 W/m2
00:11 33.8 °F /  1 °C 30 °F /  -1.1 °C 30.1in /  1019.6hPa Calm   1mph /  1.6km/h 86% 0in /  0.0mm 0 W/m2
00:16 33.6 °F /  0.9 °C 30.2 °F /  -1 °C 30.1in /  1019.6hPa ENE 2mph /  3.2km/h 2mph /  3.2km/h 87% 0in /  0.0mm 0 W/m2
00:21 33.4 °F /  0.8 °C 30 °F /  -1.1 °C 30.1in /  1019.3hPa Calm   1mph /  1.6km/h 87% 0in /  0.0mm 0 W/m2
00:26 33.3 °F /  0.7 °C 30 °F /  -1.1 °C 30.1in /  1019.6hPa Calm     88% 0in /  0.0mm 0 W/m2
00:31 33.1 °F /  0.6 °C 29.8 °F /  -1.2 °C 30.1in /  1019.3hPa Calm     88% 0in /  0.0mm 0 W/m2
00:36 32.7 °F /  0.4 °C 29.8 °F /  -1.2 °C 30.1in /  1019.3hPa Calm     89% 0in /  0.0mm 0 W/m2
00:41 32.7 °F /  0.4 °C 29.8 °F /  -1.2 °C 30.1in /  1019.3hPa Calm     89% 0in /  0.0mm 0 W/m2
00:46 32.5 °F /  0.3 °C 30 °F /  -1.1 °C 30.1in /  1019.0hPa Calm     90% 0in /  0.0mm 0 W/m2
00:51 32.5 °F /  0.3 °C 30 °F /  -1.1 °C 30.1in /  1019.0hPa Calm     90% 0in /  0.0mm 0 W/m2
00:56 32.5 °F /  0.3 °C 30 °F /  -1.1 °C 30.1in /  1019.0hPa ENE 0.9mph /  1.4km/h 1mph /  1.6km/h 90% 0in /  0.0mm 0 W/m2
01:01 32.4 °F /  0.2 °C 29.8 °F /  -1.2 °C 30.1in /  1019.0hPa Calm   1mph /  1.6km/h 90% 0in /  0.0mm 0 W/m2
01:06 32.4 °F /  0.2 °C 29.8 °F /  -1.2 °C 30.1in /  1018.6hPa ENE 0.9mph /  1.4km/h 2mph /  3.2km/h 90% 0in /  0.0mm 0 W/m2
01:11 32.2 °F /  0.1 °C 29.7 °F /  -1.3 °C 30.1in /  1018.6hPa ENE 0.9mph /  1.4km/h 1mph /  1.6km/h 90% 0in /  0.0mm 0 W/m2
01:16 32.2 °F /  0.1 °C 29.8 °F /  -1.2 °C 30.1in /  1019.0hPa ENE 0.9mph /  1.4km/h 2mph /  3.2km/h 91% 0in /  0.0mm 0 W/m2
01:21 32 °F /  0 °C 29.7 °F /  -1.3 °C 30.1in /  1019.0hPa ENE 2mph /  3.2km/h 2mph /  3.2km/h 91% 0in /  0.0mm 0 W/m2
01:26 32.2 °F /  0.1 °C 29.8 °F /  -1.2 °C 30.1in /  1018.6hPa ENE 0.9mph /  1.4km/h 1mph /  1.6km/h 91% 0in /  0.0mm 0 W/m2
01:31 32.4 °F /  0.2 °C 30 °F /  -1.1 °C 30.1in /  1018.6hPa ENE 0.9mph /  1.4km/h 3mph /  4.8km/h 91% 0in /  0.0mm 0 W/m2
01:36 32.4 °F /  0.2 °C 30 °F /  -1.1 °C 30.1in /  1018.6hPa ENE 0.9mph /  1.4km/h 3mph /  4.8km/h 91% 0in /  0.0mm 0 W/m2
01:41 32.4 °F /  0.2 °C 30 °F /  -1.1 °C 30.1in /  1018.6hPa ENE 0.9mph /  1.4km/h 1mph /  1.6km/h 91% 0in /  0.0mm 0 W/m2
01:47 32.4 °F /  0.2 °C 30 °F /  -1.1 °C 30.1in /  1019.0hPa Calm   1mph /  1.6km/h 91% 0in /  0.0mm 0 W/m2
01:52 32.4 °F /  0.2 °C 30 °F /  -1.1 °C 30.1in /  1019.0hPa ENE 0.9mph /  1.4km/h 2mph /  3.2km/h 91% 0in /  0.0mm 0 W/m2
01:57 32.5 °F /  0.3 °C 30.2 °F /  -1 °C 30.1in /  1018.6hPa ENE 2mph /  3.2km/h 2mph /  3.2km/h 91% 0in /  0.0mm 0 W/m2
02:02 32.5 °F /  0.3 °C 30.2 °F /  -1 °C 30.1in /  1019.0hPa ENE 0.9mph /  1.4km/h 1mph /  1.6km/h 91% 0in /  0.0mm 0 W/m2
02:07 32.5 °F /  0.3 °C 30.2 °F /  -1 °C 30.1in /  1019.0hPa Calm   2mph /  3.2km/h 91% 0in /  0.0mm 0 W/m2
02:12 32.5 °F /  0.3 °C 30.2 °F /  -1 °C 30.1in /  1019.0hPa Calm     91% 0in /  0.0mm 0 W/m2
02:17 32.5 °F /  0.3 °C 30.2 °F /  -1 °C 30.1in /  1019.0hPa ENE 0.9mph /  1.4km/h 2mph /  3.2km/h 91% 0in /  0.0mm 0 W/m2
02:22 32.5 °F /  0.3 °C 30.2 °F /  -1 °C 30.1in /  1019.0hPa Calm     91% 0in /  0.0mm 0 W/m2
02:27 32.5 °F /  0.3 °C 30.6 °F /  -0.8 °C 30.1in /  1019.0hPa ENE 0.9mph /  1.4km/h 1mph /  1.6km/h 92% 0in /  0.0mm 0 W/m2
02:32 32.5 °F /  0.3 °C 30.6 °F /  -0.8 °C 30.1in /  1019.0hPa ENE 0.9mph /  1.4km/h 1mph /  1.6km/h 92% 0in /  0.0mm 0 W/m2
02:37 32.7 °F /  0.4 °C 30.7 °F /  -0.7 °C 30.1in /  1019.0hPa Calm     92% 0in /  0.0mm 0 W/m2
02:42 32.9 °F /  0.5 °C 30.9 °F /  -0.6 °C 30.1in /  1019.0hPa Calm   1mph /  1.6km/h 92% 0in /  0.0mm 0 W/m2
02:47 33.1 °F /  0.6 °C 31.1 °F /  -0.5 °C 30.1in /  1019.0hPa Calm   1mph /  1.6km/h 92% 0in /  0.0mm 0 W/m2
02:52 33.3 °F /  0.7 °C 31.1 °F /  -0.5 °C 30.1in /  1019.0hPa Calm     92% 0in /  0.0mm 0 W/m2
02:57 33.3 °F /  0.7 °C 30.9 °F /  -0.6 °C 30.1in /  1018.6hPa Calm     91% 0in /  0.0mm 0 W/m2
03:02 33.3 °F /  0.7 °C 30.9 °F /  -0.6 °C 30.1in /  1018.6hPa Calm     91% 0in /  0.0mm 0 W/m2
03:07 33.4 °F /  0.8 °C 31.1 °F /  -0.5 °C 30.1in /  1018.6hPa Calm     91% 0in /  0.0mm 0 W/m2
03:12 33.4 °F /  0.8 °C 31.1 °F /  -0.5 °C 30.1in /  1018.6hPa Calm     91% 0in /  0.0mm 0 W/m2
03:17 33.4 °F /  0.8 °C 31.3 °F /  -0.4 °C 30.1in /  1018.3hPa Calm     92% 0in /  0.0mm 0 W/m2
03:22 33.3 °F /  0.7 °C 31.1 °F /  -0.5 °C 30.1in /  1018.6hPa Calm   1mph /  1.6km/h 92% 0in /  0.0mm 0 W/m2
03:27 33.3 °F /  0.7 °C 31.1 °F /  -0.5 °C 30.1in /  1018.6hPa Calm     92% 0in /  0.0mm 0 W/m2
03:32 33.3 °F /  0.7 °C 31.1 °F /  -0.5 °C 30.1in /  1018.6hPa Calm   1mph /  1.6km/h 92% 0in /  0.0mm 0 W/m2
03:37 33.3 °F /  0.7 °C 31.5 °F /  -0.3 °C 30.1in /  1018.6hPa ENE 2mph /  3.2km/h 2mph /  3.2km/h 93% 0in /  0.0mm 0 W/m2
03:42 33.3 °F /  0.7 °C 31.5 °F /  -0.3 °C 30.1in /  1018.3hPa Calm   2mph /  3.2km/h 93% 0in /  0.0mm 0 W/m2
03:47 33.1 °F /  0.6 °C 31.3 °F /  -0.4 °C 30.1in /  1018.3hPa ENE 0.9mph /  1.4km/h 2mph /  3.2km/h 93% 0in /  0.0mm 0 W/m2
03:52 33.1 °F /  0.6 °C 31.3 °F /  -0.4 °C 30.1in /  1018.3hPa ENE 0.9mph /  1.4km/h 2mph /  3.2km/h 93% 0in /  0.0mm 0 W/m2
03:57 33.1 °F /  0.6 °C 31.5 °F /  -0.3 °C 30.1in /  1018.0hPa ENE 0.9mph /  1.4km/h 2mph /  3.2km/h 94% 0in /  0.0mm 0 W/m2
04:02 33.1 °F /  0.6 °C 31.5 °F /  -0.3 °C 30.1in /  1018.0hPa ENE 0.9mph /  1.4km/h 2mph /  3.2km/h 94% 0in /  0.0mm 0 W/m2
04:07 32.7 °F /  0.4 °C 31.1 °F /  -0.5 °C 30.1in /  1018.0hPa ENE 0.9mph /  1.4km/h 2mph /  3.2km/h 94% 0in /  0.0mm 0 W/m2
04:12 32.7 °F /  0.4 °C 31.1 °F /  -0.5 °C 30.1in /  1017.6hPa NE 0.9mph /  1.4km/h 2mph /  3.2km/h 94% 0in /  0.0mm 0 W/m2
04:17 32.7 °F /  0.4 °C 31.1 °F /  -0.5 °C 30.1in /  1017.6hPa NE 0.9mph /  1.4km/h 2mph /  3.2km/h 94% 0in /  0.0mm 0 W/m2
04:22 32.7 °F /  0.4 °C 31.1 °F /  -0.5 °C 30.1in /  1017.6hPa NE 0.9mph /  1.4km/h 1mph /  1.6km/h 94% 0in /  0.0mm 0 W/m2
04:27 32.7 °F /  0.4 °C 31.1 °F /  -0.5 °C 30.1in /  1017.6hPa Calm   1mph /  1.6km/h 94% 0in /  0.0mm 0 W/m2
04:32 32.7 °F /  0.4 °C 31.5 °F /  -0.3 °C 30in /  1017.3hPa NE 0.9mph /  1.4km/h 2mph /  3.2km/h 95% 0in /  0.0mm 0 W/m2
04:37 32.7 °F /  0.4 °C 31.5 °F /  -0.3 °C 30in /  1017.3hPa Calm   1mph /  1.6km/h 95% 0in /  0.0mm 0 W/m2
04:42 32.7 °F /  0.4 °C 31.5 °F /  -0.3 °C 30in /  1016.9hPa ENE 0.9mph /  1.4km/h 3mph /  4.8km/h 95% 0in /  0.0mm 0 W/m2
04:47 32.7 °F /  0.4 °C 31.5 °F /  -0.3 °C 30in /  1016.9hPa Calm   1mph /  1.6km/h 95% 0in /  0.0mm 0 W/m2
04:52 32.7 °F /  0.4 °C 31.5 °F /  -0.3 °C 30in /  1016.6hPa NE 0.9mph /  1.4km/h 3mph /  4.8km/h 95% 0in /  0.0mm 0 W/m2
04:57 32.7 °F /  0.4 °C 31.5 °F /  -0.3 °C 30in /  1016.6hPa NE 0.9mph /  1.4km/h 1mph /  1.6km/h 95% 0in /  0.0mm 0 W/m2
05:02 32.7 °F /  0.4 °C 31.5 °F /  -0.3 °C 30in /  1016.3hPa NE 0.9mph /  1.4km/h 2mph /  3.2km/h 95% 0in /  0.0mm 0 W/m2
05:07 32.7 °F /  0.4 °C 31.5 °F /  -0.3 °C 30in /  1016.3hPa Calm   3mph /  4.8km/h 95% 0in /  0.0mm 0 W/m2
05:12 32.7 °F /  0.4 °C 31.5 °F /  -0.3 °C 30in /  1016.3hPa East 2mph /  3.2km/h 2mph /  3.2km/h 95% 0in /  0.0mm 0 W/m2
05:17 32.7 °F /  0.4 °C 31.5 °F /  -0.3 °C 30in /  1016.3hPa ESE 0.9mph /  1.4km/h 3mph /  4.8km/h 95% 0in /  0.0mm 0 W/m2
05:22 32.7 °F /  0.4 °C 31.5 °F /  -0.3 °C 30in /  1015.9hPa ESE 2mph /  3.2km/h 2mph /  3.2km/h 95% 0in /  0.0mm 0 W/m2
05:27 32.7 °F /  0.4 °C 31.5 °F /  -0.3 °C 30in /  1015.9hPa NE 0.9mph /  1.4km/h 1mph /  1.6km/h 95% 0in /  0.0mm 0 W/m2
05:32 32.7 °F /  0.4 °C 31.5 °F /  -0.3 °C 30in /  1015.9hPa East 0.9mph /  1.4km/h 2mph /  3.2km/h 95% 0in /  0.0mm 0 W/m2
05:37 32.7 °F /  0.4 °C 31.5 °F /  -0.3 °C 30in /  1015.6hPa SE 2mph /  3.2km/h 2mph /  3.2km/h 95% 0in /  0.0mm 0 W/m2
05:42 32.7 °F /  0.4 °C 31.5 °F /  -0.3 °C 30in /  1015.6hPa ESE 0.9mph /  1.4km/h 4mph /  6.4km/h 95% 0in /  0.0mm 0 W/m2
05:47 32.7 °F /  0.4 °C 31.5 °F /  -0.3 °C 30in /  1015.6hPa Calm   2mph /  3.2km/h 95% 0in /  0.0mm 0 W/m2
05:52 32.7 °F /  0.4 °C 31.5 °F /  -0.3 °C 30in /  1015.9hPa Calm   2mph /  3.2km/h 95% 0in /  0.0mm 0 W/m2
05:57 32.7 °F /  0.4 °C 31.5 °F /  -0.3 °C 30in /  1015.9hPa Calm   1mph /  1.6km/h 95% 0in /  0.0mm 0 W/m2
06:02 32.7 °F /  0.4 °C 31.5 °F /  -0.3 °C 30in /  1015.6hPa ENE 2mph /  3.2km/h 2mph /  3.2km/h 95% 0in /  0.0mm 0 W/m2
06:07 32.7 °F /  0.4 °C 31.5 °F /  -0.3 °C 30in /  1015.9hPa Calm   1mph /  1.6km/h 95% 0in /  0.0mm 0 W/m2
06:12 32.7 °F /  0.4 °C 31.5 °F /  -0.3 °C 30in /  1015.9hPa Calm   1mph /  1.6km/h 95% 0in /  0.0mm 0 W/m2
06:17 32.7 °F /  0.4 °C 31.5 °F /  -0.3 °C 30in /  1015.2hPa ESE 2mph /  3.2km/h 2mph /  3.2km/h 95% 0in /  0.0mm 0 W/m2
06:22 32.9 °F /  0.5 °C 31.6 °F /  -0.2 °C 30in /  1015.2hPa Calm   3mph /  4.8km/h 95% 0in /  0.0mm 0 W/m2
06:27 32.9 °F /  0.5 °C 31.6 °F /  -0.2 °C 30in /  1015.2hPa Calm   1mph /  1.6km/h 95% 0in /  0.0mm 0 W/m2
06:32 32.9 °F /  0.5 °C 31.6 °F /  -0.2 °C 30in /  1015.2hPa Calm     95% 0in /  0.0mm 0 W/m2
06:37 32.9 °F /  0.5 °C 31.6 °F /  -0.2 °C 30in /  1015.2hPa Calm   2mph /  3.2km/h 95% 0in /  0.0mm 0 W/m2
06:42 32.9 °F /  0.5 °C 31.6 °F /  -0.2 °C 30in /  1015.2hPa ENE 0.9mph /  1.4km/h 1mph /  1.6km/h 95% 0in /  0.0mm 0 W/m2
06:47 32.9 °F /  0.5 °C 31.6 °F /  -0.2 °C 30in /  1014.9hPa North 2mph /  3.2km/h 2mph /  3.2km/h 95% 0in /  0.0mm 0 W/m2
06:52 33.1 °F /  0.6 °C 31.8 °F /  -0.1 °C 30in /  1014.6hPa Calm   2mph /  3.2km/h 95% 0in /  0.0mm 0 W/m2
06:57 33.1 °F /  0.6 °C 32 °F /  0 °C 30in /  1014.6hPa Calm   2mph /  3.2km/h 96% 0in /  0.0mm 0 W/m2
07:02 33.1 °F /  0.6 °C 32 °F /  0 °C 30in /  1014.6hPa Calm   2mph /  3.2km/h 96% 0in /  0.0mm 0 W/m2
07:07 33.1 °F /  0.6 °C 32 °F /  0 °C 30in /  1014.6hPa Calm   2mph /  3.2km/h 96% 0in /  0.0mm 0 W/m2
07:12 33.3 °F /  0.7 °C 32 °F /  0 °C 30in /  1014.6hPa Calm     95% 0in /  0.0mm 0 W/m2
07:17 33.3 °F /  0.7 °C 32 °F /  0 °C 30in /  1014.6hPa East 2mph /  3.2km/h 2mph /  3.2km/h 95% 0in /  0.0mm 0 W/m2
07:22 33.3 °F /  0.7 °C 32 °F /  0 °C 30in /  1014.6hPa ENE 0.9mph /  1.4km/h 1mph /  1.6km/h 95% 0in /  0.0mm 0 W/m2
07:27 33.3 °F /  0.7 °C 32 °F /  0 °C 30in /  1014.6hPa NE 0.9mph /  1.4km/h 2mph /  3.2km/h 95% 0in /  0.0mm 0 W/m2
07:32 33.3 °F /  0.7 °C 32 °F /  0 °C 30in /  1014.6hPa Calm     95% 0in /  0.0mm 0 W/m2
07:37 33.3 °F /  0.7 °C 32 °F /  0 °C 30in /  1014.6hPa ENE 2mph /  3.2km/h 2mph /  3.2km/h 95% 0in /  0.0mm 0 W/m2
07:42 33.3 °F /  0.7 °C 32 °F /  0 °C 30in /  1014.6hPa Calm   1mph /  1.6km/h 95% 0in /  0.0mm 0 W/m2
07:47 33.3 °F /  0.7 °C 32 °F /  0 °C 30in /  1014.6hPa Calm   1mph /  1.6km/h 95% 0in /  0.0mm 0 W/m2
07:52 33.3 °F /  0.7 °C 32 °F /  0 °C 30in /  1014.6hPa NE 0.9mph /  1.4km/h 2mph /  3.2km/h 95% 0in /  0.0mm 0 W/m2
07:57 33.3 °F /  0.7 °C 32 °F /  0 °C 30in /  1014.6hPa Calm     95% 0in /  0.0mm 0 W/m2
08:02 33.3 °F /  0.7 °C 32 °F /  0 °C 30in /  1014.6hPa Calm   2mph /  3.2km/h 95% 0in /  0.0mm 0 W/m2
08:07 33.3 °F /  0.7 °C 32 °F /  0 °C 30in /  1014.6hPa NE 0.9mph /  1.4km/h 2mph /  3.2km/h 95% 0in /  0.0mm 0 W/m2
08:12 33.3 °F /  0.7 °C 32 °F /  0 °C 30in /  1014.6hPa Calm   1mph /  1.6km/h 95% 0in /  0.0mm 0 W/m2
08:17 33.3 °F /  0.7 °C 32 °F /  0 °C 30in /  1014.6hPa Calm   1mph /  1.6km/h 95% 0in /  0.0mm 0 W/m2
08:22 33.3 °F /  0.7 °C 32 °F /  0 °C 30in /  1014.6hPa Calm     95% 0in /  0.0mm 0 W/m2
08:27 33.1 °F /  0.6 °C 31.8 °F /  -0.1 °C 30in /  1014.6hPa Calm   1mph /  1.6km/h 95% 0in /  0.0mm 0 W/m2
08:32 33.1 °F /  0.6 °C 31.8 °F /  -0.1 °C 29.9in /  1013.9hPa Calm   1mph /  1.6km/h 95% 0in /  0.0mm 0 W/m2
08:37 33.1 °F /  0.6 °C 31.8 °F /  -0.1 °C 29.9in /  1013.5hPa East 0.9mph /  1.4km/h 2mph /  3.2km/h 95% 0in /  0.0mm 0 W/m2
08:42 33.3 °F /  0.7 °C 32 °F /  0 °C 30in /  1014.2hPa Calm   1mph /  1.6km/h 95% 0in /  0.0mm 0 W/m2
08:47 33.3 °F /  0.7 °C 32 °F /  0 °C 30in /  1014.6hPa Calm   1mph /  1.6km/h 95% 0in /  0.0mm 0 W/m2
08:52 33.3 °F /  0.7 °C 32 °F /  0 °C 30in /  1014.9hPa Calm   1mph /  1.6km/h 95% 0in /  0.0mm 0 W/m2
08:57 33.3 °F /  0.7 °C 32 °F /  0 °C 30in /  1014.6hPa Calm     95% 0in /  0.0mm 0 W/m2
09:03 33.3 °F /  0.7 °C 32 °F /  0 °C 30in /  1014.6hPa Calm     95% 0in /  0.0mm 0 W/m2
09:08 33.3 °F /  0.7 °C 32 °F /  0 °C 30in /  1014.2hPa Calm   1mph /  1.6km/h 95% 0in /  0.0mm 0 W/m2
09:13 33.3 °F /  0.7 °C 32 °F /  0 °C 30in /  1014.2hPa Calm   1mph /  1.6km/h 95% 0in /  0.0mm 5 W/m2
09:18 33.3 °F /  0.7 °C 32 °F /  0 °C 30in /  1014.2hPa Calm     95% 0in /  0.0mm 7 W/m2
09:23 33.3 °F /  0.7 °C 32 °F /  0 °C 30in /  1014.2hPa Calm   2mph /  3.2km/h 95% 0in /  0.0mm 9 W/m2
09:28 33.4 °F /  0.8 °C 32.2 °F /  0.1 °C 30in /  1014.2hPa Calm     95% 0in /  0.0mm 9 W/m2
09:33 33.4 °F /  0.8 °C 32.2 °F /  0.1 °C 30in /  1014.2hPa Calm     95% 0in /  0.0mm 9 W/m2
09:38 33.4 °F /  0.8 °C 32.2 °F /  0.1 °C 29.9in /  1013.9hPa Calm     95% 0in /  0.0mm 11 W/m2
09:43 33.4 °F /  0.8 °C 32.2 °F /  0.1 °C 30in /  1014.2hPa Calm     95% 0in /  0.0mm 11 W/m2
09:48 33.4 °F /  0.8 °C 32.2 °F /  0.1 °C 29.9in /  1013.9hPa Calm     95% 0in /  0.0mm 18 W/m2
09:53 33.6 °F /  0.9 °C 32.4 °F /  0.2 °C 29.9in /  1013.9hPa Calm     95% 0in /  0.0mm 25 W/m2
09:58 33.8 °F /  1 °C 32.5 °F /  0.3 °C 29.9in /  1013.9hPa Calm     95% 0in /  0.0mm 23 W/m2
10:03 34 °F /  1.1 °C 32.7 °F /  0.4 °C 29.9in /  1013.9hPa Calm   1mph /  1.6km/h 95% 0in /  0.0mm 21 W/m2
10:08 34 °F /  1.1 °C 32.7 °F /  0.4 °C 29.9in /  1013.5hPa ENE 0.9mph /  1.4km/h 2mph /  3.2km/h 95% 0in /  0.0mm 21 W/m2
10:13 34.2 °F /  1.2 °C 32.5 °F /  0.3 °C 29.9in /  1013.9hPa Calm   2mph /  3.2km/h 94% 0in /  0.0mm 16 W/m2
10:18 34.2 °F /  1.2 °C 32.5 °F /  0.3 °C 29.9in /  1013.9hPa Calm     94% 0in /  0.0mm 19 W/m2
10:23 34.2 °F /  1.2 °C 32.5 °F /  0.3 °C 29.9in /  1013.9hPa WNW 2mph /  3.2km/h 3mph /  4.8km/h 94% 0in /  0.0mm 16 W/m2
10:28 34.2 °F /  1.2 °C 32.5 °F /  0.3 °C 29.9in /  1013.9hPa Calm   1mph /  1.6km/h 94% 0in /  0.0mm 19 W/m2
10:33 34.3 °F /  1.3 °C 32.7 °F /  0.4 °C 30in /  1014.2hPa North 2mph /  3.2km/h 2mph /  3.2km/h 94% 0in /  0.0mm 18 W/m2
10:38 34.3 °F /  1.3 °C 32.7 °F /  0.4 °C 30in /  1014.2hPa South 0.9mph /  1.4km/h 1mph /  1.6km/h 94% 0in /  0.0mm 21 W/m2
10:43 34.3 °F /  1.3 °C 32.5 °F /  0.3 °C 30in /  1014.2hPa Calm   2mph /  3.2km/h 93% 0in /  0.0mm 19 W/m2
10:48 34.3 °F /  1.3 °C 32.5 °F /  0.3 °C 30in /  1014.2hPa Calm   1mph /  1.6km/h 93% 0in /  0.0mm 19 W/m2
10:53 34.3 °F /  1.3 °C 32.5 °F /  0.3 °C 30in /  1014.2hPa Calm   1mph /  1.6km/h 93% 0in /  0.0mm 23 W/m2
10:58 34.5 °F /  1.4 °C 32.7 °F /  0.4 °C 30in /  1014.6hPa Calm   1mph /  1.6km/h 93% 0in /  0.0mm 25 W/m2
11:03 34.5 °F /  1.4 °C 32.7 °F /  0.4 °C 30in /  1014.6hPa Calm     93% 0in /  0.0mm 23 W/m2
11:08 34.5 °F /  1.4 °C 32.9 °F /  0.5 °C 30in /  1014.6hPa Calm     94% 0in /  0.0mm 23 W/m2
11:13 34.7 °F /  1.5 °C 33.1 °F /  0.6 °C 30in /  1014.6hPa Calm     94% 0in /  0.0mm 23 W/m2
11:18 34.7 °F /  1.5 °C 32.9 °F /  0.5 °C 30in /  1014.9hPa Calm     93% 0in /  0.0mm 21 W/m2
11:23 34.7 °F /  1.5 °C 32.9 °F /  0.5 °C 30in /  1014.9hPa Calm     93% 0in /  0.0mm 19 W/m2
11:28 34.5 °F /  1.4 °C 32.7 °F /  0.4 °C 30in /  1014.9hPa Calm   1mph /  1.6km/h 93% 0in /  0.0mm 19 W/m2
11:33 34.5 °F /  1.4 °C 32.9 °F /  0.5 °C 30in /  1014.9hPa Calm     94% 0in /  0.0mm 16 W/m2
11:38 34.5 °F /  1.4 °C 32.9 °F /  0.5 °C 30in /  1014.9hPa Calm   1mph /  1.6km/h 94% 0in /  0.0mm 19 W/m2
11:43 34.5 °F /  1.4 °C 32.9 °F /  0.5 °C 30in /  1014.6hPa Calm   1mph /  1.6km/h 94% 0in /  0.0mm 25 W/m2
11:48 34.5 °F /  1.4 °C 32.9 °F /  0.5 °C 30in /  1014.9hPa ESE 0.9mph /  1.4km/h 1mph /  1.6km/h 94% 0in /  0.0mm 30 W/m2
11:53 34.3 °F /  1.3 °C 32.7 °F /  0.4 °C 30in /  1014.6hPa Calm   2mph /  3.2km/h 94% 0in /  0.0mm 33 W/m2
11:58 34.3 °F /  1.3 °C 32.7 °F /  0.4 °C 30in /  1014.6hPa ENE 2.9mph /  4.7km/h 4mph /  6.4km/h 94% 0in /  0.0mm 35 W/m2
12:03 34.3 °F /  1.3 °C 32.7 °F /  0.4 °C 30in /  1014.6hPa East 0.9mph /  1.4km/h 3mph /  4.8km/h 94% 0.01in /  0.2mm 33 W/m2
12:08 34.5 °F /  1.4 °C 32.9 °F /  0.5 °C 30in /  1014.6hPa SE 0.9mph /  1.4km/h 2mph /  3.2km/h 94% 0.01in /  0.2mm 40 W/m2
12:13 34.5 °F /  1.4 °C 32.9 °F /  0.5 °C 30in /  1014.6hPa ENE 2mph /  3.2km/h 2mph /  3.2km/h 94% 0.02in /  0.5mm 49 W/m2
12:18 34.7 °F /  1.5 °C 33.1 °F /  0.6 °C 30in /  1014.2hPa Calm   1mph /  1.6km/h 94% 0.02in /  0.5mm 58 W/m2
12:23 34.9 °F /  1.6 °C 33.3 °F /  0.7 °C 30in /  1014.2hPa Calm   1mph /  1.6km/h 94% 0.02in /  0.5mm 62 W/m2
12:28 34.9 °F /  1.6 °C 33.3 °F /  0.7 °C 30in /  1014.2hPa SE 2mph /  3.2km/h 2mph /  3.2km/h 94% 0.02in /  0.5mm 69 W/m2
12:33 35.1 °F /  1.7 °C 33.4 °F /  0.8 °C 30in /  1014.2hPa ESE 0.9mph /  1.4km/h 2mph /  3.2km/h 94% 0.02in /  0.5mm 70 W/m2
12:38 35.2 °F /  1.8 °C 33.6 °F /  0.9 °C 30in /  1014.2hPa Calm     94% 0.03in /  0.8mm 69 W/m2
12:43 35.1 °F /  1.7 °C 33.3 °F /  0.7 °C 30in /  1014.2hPa Calm   3mph /  4.8km/h 93% 0.03in /  0.8mm 81 W/m2
12:48 35.2 °F /  1.8 °C 33.6 °F /  0.9 °C 30in /  1014.2hPa NE 0.9mph /  1.4km/h 1mph /  1.6km/h 94% 0.03in /  0.8mm 76 W/m2
12:53 35.2 °F /  1.8 °C 33.6 °F /  0.9 °C 30in /  1014.2hPa Calm   2mph /  3.2km/h 94% 0.04in /  1.0mm 74 W/m2
12:58 35.2 °F /  1.8 °C 33.6 °F /  0.9 °C 30in /  1014.2hPa Calm   1mph /  1.6km/h 94% 0.04in /  1.0mm 69 W/m2
13:03 35.2 °F /  1.8 °C 33.6 °F /  0.9 °C 30in /  1014.2hPa Calm   3mph /  4.8km/h 94% 0.04in /  1.0mm 72 W/m2
13:08 35.2 °F /  1.8 °C 33.6 °F /  0.9 °C 30in /  1014.2hPa Calm   1mph /  1.6km/h 94% 0.04in /  1.0mm 60 W/m2
13:13 35.4 °F /  1.9 °C 33.8 °F /  1 °C 30in /  1014.2hPa Calm   2mph /  3.2km/h 94% 0.03in /  0.8mm 86 W/m2
13:18 35.4 °F /  1.9 °C 33.8 °F /  1 °C 30in /  1014.2hPa Calm   1mph /  1.6km/h 94% 0.04in /  1.0mm 120 W/m2
13:23 35.6 °F /  2 °C 34 °F /  1.1 °C 29.9in /  1013.9hPa NNE 2mph /  3.2km/h 2mph /  3.2km/h 94% 0.03in /  0.8mm 144 W/m2
13:28 35.6 °F /  2 °C 34 °F /  1.1 °C 30in /  1014.2hPa Calm   2mph /  3.2km/h 94% 0.04in /  1.0mm 141 W/m2
13:33 35.8 °F /  2.1 °C 34.2 °F /  1.2 °C 29.9in /  1013.9hPa Calm   1mph /  1.6km/h 94% 0.04in /  1.0mm 84 W/m2
13:38 36 °F /  2.2 °C 34.3 °F /  1.3 °C 29.9in /  1013.9hPa West 0.9mph /  1.4km/h 1mph /  1.6km/h 94% 0.04in /  1.0mm 77 W/m2
13:43 36 °F /  2.2 °C 34.3 °F /  1.3 °C 29.9in /  1013.9hPa Calm   2mph /  3.2km/h 94% 0.04in /  1.0mm 77 W/m2
13:48 36 °F /  2.2 °C 34.3 °F /  1.3 °C 29.9in /  1013.9hPa NNW 0.9mph /  1.4km/h 1mph /  1.6km/h 94% 0.04in /  1.0mm 95 W/m2
13:53 36 °F /  2.2 °C 34.3 °F /  1.3 °C 29.9in /  1013.5hPa NNW 2mph /  3.2km/h 2mph /  3.2km/h 94% 0.04in /  1.0mm 102 W/m2
13:58 36 °F /  2.2 °C 34.3 °F /  1.3 °C 29.9in /  1013.5hPa Calm   2mph /  3.2km/h 94% 0.04in /  1.0mm 86 W/m2
14:03 36.1 °F /  2.3 °C 34.5 °F /  1.4 °C 29.9in /  1013.5hPa Calm   2mph /  3.2km/h 94% 0.04in /  1.0mm 114 W/m2
14:08 36.1 °F /  2.3 °C 34.5 °F /  1.4 °C 29.9in /  1013.5hPa NW 0.9mph /  1.4km/h 4mph /  6.4km/h 94% 0.04in /  1.0mm 114 W/m2
14:13 36.3 °F /  2.4 °C 34.7 °F /  1.5 °C 29.9in /  1013.5hPa Calm   8mph /  12.9km/h 94% 0.05in /  1.3mm 118 W/m2
14:18 36.3 °F /  2.4 °C 34.7 °F /  1.5 °C 29.9in /  1013.5hPa Calm   2mph /  3.2km/h 94% 0.04in /  1.0mm 127 W/m2
14:23 36.5 °F /  2.5 °C 34.9 °F /  1.6 °C 29.9in /  1013.5hPa WNW 2mph /  3.2km/h 4mph /  6.4km/h 94% 0.05in /  1.3mm 102 W/m2
14:28 36.5 °F /  2.5 °C 34.9 °F /  1.6 °C 29.9in /  1013.5hPa West 2.9mph /  4.7km/h 7mph /  11.3km/h 94% 0.04in /  1.0mm 102 W/m2
14:33 36.5 °F /  2.5 °C 34.9 °F /  1.6 °C 29.9in /  1013.5hPa Calm   4mph /  6.4km/h 94% 0.04in /  1.0mm 77 W/m2
14:38 36.7 °F /  2.6 °C 35.4 °F /  1.9 °C 29.9in /  1013.2hPa West 2.9mph /  4.7km/h 7mph /  11.3km/h 95% 0.04in /  1.0mm 65 W/m2
14:43 36.7 °F /  2.6 °C 35.1 °F /  1.7 °C 29.9in /  1013.2hPa WNW 4mph /  6.4km/h 5mph /  8km/h 94% 0.04in /  1.0mm 60 W/m2
14:48 36.7 °F /  2.6 °C 35.1 °F /  1.7 °C 29.9in /  1013.5hPa NW 0.9mph /  1.4km/h 2mph /  3.2km/h 94% 0.04in /  1.0mm 62 W/m2
14:53 36.7 °F /  2.6 °C 35.1 °F /  1.7 °C 29.9in /  1013.5hPa Calm   3mph /  4.8km/h 94% 0.03in /  0.8mm 58 W/m2
14:58 36.9 °F /  2.7 °C 35.2 °F /  1.8 °C 29.9in /  1013.5hPa Calm   2mph /  3.2km/h 94% 0.04in /  1.0mm 69 W/m2
15:03 36.9 °F /  2.7 °C 35.2 °F /  1.8 °C 29.9in /  1013.2hPa Calm   3mph /  4.8km/h 94% 0.03in /  0.8mm 70 W/m2
15:08 36.9 °F /  2.7 °C 35.2 °F /  1.8 °C 29.9in /  1013.5hPa North 0.9mph /  1.4km/h 2mph /  3.2km/h 94% 0.03in /  0.8mm 72 W/m2
15:13 36.9 °F /  2.7 °C 35.2 °F /  1.8 °C 29.9in /  1013.5hPa NNW 0.9mph /  1.4km/h 2mph /  3.2km/h 94% 0.02in /  0.5mm 47 W/m2
15:18 36.9 °F /  2.7 °C 35.2 °F /  1.8 °C 29.9in /  1013.5hPa Calm   1mph /  1.6km/h 94% 0.03in /  0.8mm 42 W/m2
15:23 36.9 °F /  2.7 °C 35.2 °F /  1.8 °C 29.9in /  1013.5hPa NW 2.9mph /  4.7km/h 4mph /  6.4km/h 94% 0.02in /  0.5mm 39 W/m2
15:28 37 °F /  2.8 °C 35.4 °F /  1.9 °C 29.9in /  1013.5hPa ENE 0.9mph /  1.4km/h 2mph /  3.2km/h 94% 0.02in /  0.5mm 39 W/m2
15:33 37 °F /  2.8 °C 35.4 °F /  1.9 °C 29.9in /  1013.5hPa NW 0.9mph /  1.4km/h 5mph /  8km/h 94% 0.02in /  0.5mm 37 W/m2
15:38 37 °F /  2.8 °C 35.4 °F /  1.9 °C 29.9in /  1013.5hPa East 0.9mph /  1.4km/h 3mph /  4.8km/h 94% 0.02in /  0.5mm 44 W/m2
15:43 37 °F /  2.8 °C 35.4 °F /  1.9 °C 29.9in /  1013.5hPa North 0.9mph /  1.4km/h 5mph /  8km/h 94% 0.02in /  0.5mm 35 W/m2
15:48 37 °F /  2.8 °C 35.4 °F /  1.9 °C 29.9in /  1013.5hPa Calm   2mph /  3.2km/h 94% 0.02in /  0.5mm 33 W/m2
15:53 37 °F /  2.8 °C 35.4 °F /  1.9 °C 29.9in /  1013.5hPa NW 0.9mph /  1.4km/h 3mph /  4.8km/h 94% 0.01in /  0.2mm 25 W/m2
15:58 37 °F /  2.8 °C 35.4 °F /  1.9 °C 29.9in /  1013.5hPa NNW 2mph /  3.2km/h 2mph /  3.2km/h 94% 0.01in /  0.2mm 23 W/m2
16:03 37 °F /  2.8 °C 35.4 °F /  1.9 °C 29.9in /  1013.5hPa NNW 0.9mph /  1.4km/h 3mph /  4.8km/h 94% 0.01in /  0.2mm 19 W/m2
16:08 37 °F /  2.8 °C 35.4 °F /  1.9 °C 29.9in /  1013.5hPa West 0.9mph /  1.4km/h 2mph /  3.2km/h 94% 0.01in /  0.2mm 19 W/m2
16:13 37 °F /  2.8 °C 35.8 °F /  2.1 °C 29.9in /  1013.5hPa Calm   3mph /  4.8km/h 95% 0.02in /  0.5mm 19 W/m2
16:18 37 °F /  2.8 °C 35.4 °F /  1.9 °C 29.9in /  1013.5hPa Calm   3mph /  4.8km/h 94% 0.01in /  0.2mm 14 W/m2
16:23 37 °F /  2.8 °C 35.4 °F /  1.9 °C 29.9in /  1013.9hPa Calm   1mph /  1.6km/h 94% 0.01in /  0.2mm 12 W/m2
16:28 37 °F /  2.8 °C 35.8 °F /  2.1 °C 29.9in /  1013.9hPa NW 0.9mph /  1.4km/h 4mph /  6.4km/h 95% 0.01in /  0.2mm 9 W/m2
16:33 37 °F /  2.8 °C 35.8 °F /  2.1 °C 30in /  1014.2hPa NW 0.9mph /  1.4km/h 3mph /  4.8km/h 95% 0.01in /  0.2mm 7 W/m2
16:39 37 °F /  2.8 °C 35.8 °F /  2.1 °C 30in /  1014.2hPa Calm   4mph /  6.4km/h 95% 0.01in /  0.2mm 5 W/m2
16:44 37 °F /  2.8 °C 35.8 °F /  2.1 °C 30in /  1014.2hPa Calm   1mph /  1.6km/h 95% 0.01in /  0.2mm 0 W/m2
16:49 37 °F /  2.8 °C 35.8 °F /  2.1 °C 30in /  1014.2hPa Calm     95% 0.01in /  0.2mm 0 W/m2
16:54 37 °F /  2.8 °C 35.8 °F /  2.1 °C 30in /  1014.2hPa NW 0.9mph /  1.4km/h 2mph /  3.2km/h 95% 0.01in /  0.2mm 0 W/m2
16:59 37 °F /  2.8 °C 35.8 °F /  2.1 °C 30in /  1014.2hPa Calm     95% 0.01in /  0.2mm 5 W/m2
17:04 37 °F /  2.8 °C 35.8 °F /  2.1 °C 29.9in /  1013.9hPa Calm     95% 0.01in /  0.2mm 5 W/m2
17:09 37 °F /  2.8 °C 35.8 °F /  2.1 °C 29.9in /  1013.9hPa Calm   2mph /  3.2km/h 95% 0.01in /  0.2mm 0 W/m2
17:14 37 °F /  2.8 °C 35.8 °F /  2.1 °C 30in /  1014.2hPa NW 0.9mph /  1.4km/h 1mph /  1.6km/h 95% 0in /  0.0mm 0 W/m2
17:19 37 °F /  2.8 °C 35.8 °F /  2.1 °C 30in /  1014.2hPa NW 0.9mph /  1.4km/h 1mph /  1.6km/h 95% 0in /  0.0mm 0 W/m2
17:24 37 °F /  2.8 °C 35.8 °F /  2.1 °C 30in /  1014.2hPa Calm     95% 0in /  0.0mm 0 W/m2
17:29 36.9 °F /  2.7 °C 35.6 °F /  2 °C 30in /  1014.2hPa Calm     95% 0in /  0.0mm 0 W/m2
17:34 36.9 °F /  2.7 °C 35.6 °F /  2 °C 30in /  1014.2hPa Calm     95% 0in /  0.0mm 0 W/m2
17:39 36.9 °F /  2.7 °C 35.6 °F /  2 °C 30in /  1014.2hPa NW 0.9mph /  1.4km/h 2mph /  3.2km/h 95% 0in /  0.0mm 0 W/m2
17:44 37 °F /  2.8 °C 35.8 °F /  2.1 °C 30in /  1014.2hPa Calm     95% 0in /  0.0mm 0 W/m2
17:49 37 °F /  2.8 °C 35.8 °F /  2.1 °C 30in /  1014.2hPa NE 0.9mph /  1.4km/h 2mph /  3.2km/h 95% 0in /  0.0mm 0 W/m2
17:54 37 °F /  2.8 °C 36 °F /  2.2 °C 30in /  1014.2hPa NE 0.9mph /  1.4km/h 2mph /  3.2km/h 96% 0in /  0.0mm 0 W/m2
17:59 37 °F /  2.8 °C 36 °F /  2.2 °C 30in /  1014.2hPa Calm   3mph /  4.8km/h 96% 0in /  0.0mm 0 W/m2
18:04 37 °F /  2.8 °C 36 °F /  2.2 °C 30in /  1014.2hPa Calm     96% 0in /  0.0mm 0 W/m2
18:09 37 °F /  2.8 °C 36 °F /  2.2 °C 30in /  1014.2hPa Calm   3mph /  4.8km/h 96% 0in /  0.0mm 0 W/m2
18:14 37 °F /  2.8 °C 36 °F /  2.2 °C 30in /  1014.2hPa Calm     96% 0in /  0.0mm 0 W/m2
18:19 37 °F /  2.8 °C 36 °F /  2.2 °C 30in /  1014.2hPa Calm     96% 0in /  0.0mm 0 W/m2
18:24 37 °F /  2.8 °C 36 °F /  2.2 °C 30in /  1014.2hPa Calm     96% 0in /  0.0mm 0 W/m2
18:29 37 °F /  2.8 °C 36 °F /  2.2 °C 30in /  1014.2hPa North 0.9mph /  1.4km/h 2mph /  3.2km/h 96% 0in /  0.0mm 0 W/m2
18:34 37 °F /  2.8 °C 36 °F /  2.2 °C 30in /  1014.2hPa Calm   1mph /  1.6km/h 96% 0in /  0.0mm 0 W/m2
18:39 37 °F /  2.8 °C 36 °F /  2.2 °C 30in /  1014.2hPa Calm   2mph /  3.2km/h 96% 0in /  0.0mm 0 W/m2
18:44 37 °F /  2.8 °C 36 °F /  2.2 °C 30in /  1014.2hPa West 0.9mph /  1.4km/h 1mph /  1.6km/h 96% 0in /  0.0mm 0 W/m2
18:49 37 °F /  2.8 °C 36 °F /  2.2 °C 30in /  1014.2hPa West 0.9mph /  1.4km/h 2mph /  3.2km/h 96% 0in /  0.0mm 0 W/m2
18:54 37.2 °F /  2.9 °C 36.1 °F /  2.3 °C 30in /  1014.2hPa Calm     96% 0in /  0.0mm 0 W/m2
18:59 37.2 °F /  2.9 °C 36.1 °F /  2.3 °C 30in /  1014.6hPa WNW 0.9mph /  1.4km/h 3mph /  4.8km/h 96% 0in /  0.0mm 0 W/m2
19:04 37.2 °F /  2.9 °C 36.1 °F /  2.3 °C 30in /  1014.2hPa Calm   1mph /  1.6km/h 96% 0in /  0.0mm 0 W/m2
19:09 37.4 °F /  3 °C 36.3 °F /  2.4 °C 30in /  1014.2hPa Calm   1mph /  1.6km/h 96% 0in /  0.0mm 0 W/m2
19:14 37.4 °F /  3 °C 36.3 °F /  2.4 °C 30in /  1014.6hPa Calm   2mph /  3.2km/h 96% 0in /  0.0mm 0 W/m2
19:19 37.4 °F /  3 °C 36.3 °F /  2.4 °C 30in /  1014.6hPa Calm   2mph /  3.2km/h 96% 0in /  0.0mm 0 W/m2
19:24 37.4 °F /  3 °C 36.3 °F /  2.4 °C 30in /  1014.2hPa Calm     96% 0in /  0.0mm 0 W/m2
19:29 37.4 °F /  3 °C 36.3 °F /  2.4 °C 30in /  1014.6hPa Calm     96% 0in /  0.0mm 0 W/m2
19:34 37.4 °F /  3 °C 36.3 °F /  2.4 °C 30in /  1014.2hPa Calm     96% 0in /  0.0mm 0 W/m2
19:39 37.2 °F /  2.9 °C 36.1 °F /  2.3 °C 30in /  1014.6hPa Calm     96% 0in /  0.0mm 0 W/m2
19:44 37.2 °F /  2.9 °C 36.1 °F /  2.3 °C 30in /  1014.6hPa Calm     96% 0in /  0.0mm 0 W/m2
19:49 37.2 °F /  2.9 °C 36.1 °F /  2.3 °C 30in /  1014.6hPa Calm     96% 0in /  0.0mm 0 W/m2
19:54 37.2 °F /  2.9 °C 36.1 °F /  2.3 °C 30in /  1014.6hPa Calm     96% 0in /  0.0mm 0 W/m2
19:59 37.2 °F /  2.9 °C 36.1 °F /  2.3 °C 30in /  1014.6hPa Calm     96% 0in /  0.0mm 0 W/m2
20:04 37.2 °F /  2.9 °C 36.1 °F /  2.3 °C 30in /  1014.2hPa Calm     96% 0in /  0.0mm 0 W/m2
20:09 37.2 °F /  2.9 °C 36.1 °F /  2.3 °C 30in /  1014.2hPa Calm     96% 0in /  0.0mm 0 W/m2
20:14 37.2 °F /  2.9 °C 36.1 °F /  2.3 °C 30in /  1014.2hPa Calm     96% 0in /  0.0mm 0 W/m2
20:19 37.2 °F /  2.9 °C 36.1 °F /  2.3 °C 30in /  1014.2hPa Calm     96% 0in /  0.0mm 0 W/m2
20:24 37.2 °F /  2.9 °C 36.1 °F /  2.3 °C 30in /  1014.6hPa Calm     96% 0in /  0.0mm 0 W/m2
20:29 37.2 °F /  2.9 °C 36.1 °F /  2.3 °C 30in /  1014.6hPa Calm     96% 0in /  0.0mm 0 W/m2
20:34 37.2 °F /  2.9 °C 36.1 °F /  2.3 °C 30in /  1014.2hPa Calm     96% 0in /  0.0mm 0 W/m2
20:39 37.2 °F /  2.9 °C 36.1 °F /  2.3 °C 30in /  1014.2hPa Calm     96% 0in /  0.0mm 0 W/m2
20:44 37.2 °F /  2.9 °C 36.1 °F /  2.3 °C 30in /  1014.2hPa SSW 0.9mph /  1.4km/h 1mph /  1.6km/h 96% 0in /  0.0mm 0 W/m2
20:49 37.4 °F /  3 °C 36.3 °F /  2.4 °C 30in /  1014.2hPa Calm   1mph /  1.6km/h 96% 0in /  0.0mm 0 W/m2
20:54 37.6 °F /  3.1 °C 36.5 °F /  2.5 °C 30in /  1014.2hPa Calm     96% 0in /  0.0mm 0 W/m2
20:59 37.6 °F /  3.1 °C 36.9 °F /  2.7 °C 30in /  1014.2hPa Calm     97% 0in /  0.0mm 0 W/m2
21:04 37.8 °F /  3.2 °C 37 °F /  2.8 °C 30in /  1014.2hPa NNW 0.9mph /  1.4km/h 2mph /  3.2km/h 97% 0in /  0.0mm 0 W/m2
21:09 37.8 °F /  3.2 °C 37 °F /  2.8 °C 30in /  1014.2hPa Calm     97% 0in /  0.0mm 0 W/m2
21:14 37.8 °F /  3.2 °C 36.7 °F /  2.6 °C 30in /  1014.2hPa Calm     96% 0in /  0.0mm 0 W/m2
21:19 37.8 °F /  3.2 °C 36.7 °F /  2.6 °C 30in /  1014.2hPa Calm     96% 0in /  0.0mm 0 W/m2
21:24 37.8 °F /  3.2 °C 36.7 °F /  2.6 °C 30in /  1014.2hPa Calm     96% 0in /  0.0mm 0 W/m2
21:29 37.8 °F /  3.2 °C 36.7 °F /  2.6 °C 30in /  1014.2hPa NNW 0.9mph /  1.4km/h 2mph /  3.2km/h 96% 0in /  0.0mm 0 W/m2
21:34 37.8 °F /  3.2 °C 37 °F /  2.8 °C 30in /  1014.2hPa NW 0.9mph /  1.4km/h 2mph /  3.2km/h 97% 0in /  0.0mm 0 W/m2
21:39 37.9 °F /  3.3 °C 37.2 °F /  2.9 °C 30in /  1014.2hPa Calm     97% 0in /  0.0mm 0 W/m2
21:44 37.9 °F /  3.3 °C 36.9 °F /  2.7 °C 30in /  1014.2hPa South 0.9mph /  1.4km/h 2mph /  3.2km/h 96% 0in /  0.0mm 0 W/m2
21:49 37.9 °F /  3.3 °C 36.9 °F /  2.7 °C 30in /  1014.2hPa Calm     96% 0in /  0.0mm 0 W/m2
21:54 37.9 °F /  3.3 °C 36.9 °F /  2.7 °C 30in /  1014.2hPa Calm     96% 0in /  0.0mm 0 W/m2
21:59 37.9 °F /  3.3 °C 36.9 °F /  2.7 °C 30in /  1014.2hPa South 0.9mph /  1.4km/h 1mph /  1.6km/h 96% 0in /  0.0mm 0 W/m2
22:04 38.1 °F /  3.4 °C 37 °F /  2.8 °C 29.9in /  1013.9hPa Calm   2mph /  3.2km/h 96% 0in /  0.0mm 0 W/m2
22:09 38.1 °F /  3.4 °C 37 °F /  2.8 °C 29.9in /  1013.9hPa Calm     96% 0in /  0.0mm 0 W/m2
22:14 37.9 °F /  3.3 °C 36.9 °F /  2.7 °C 30in /  1014.2hPa Calm   2mph /  3.2km/h 96% 0in /  0.0mm 0 W/m2
22:19 38.1 °F /  3.4 °C 37.4 °F /  3 °C 30in /  1014.2hPa Calm   2mph /  3.2km/h 97% 0in /  0.0mm 0 W/m2
22:24 38.3 °F /  3.5 °C 37.6 °F /  3.1 °C 30in /  1014.2hPa Calm   1mph /  1.6km/h 97% 0in /  0.0mm 0 W/m2
22:29 38.3 °F /  3.5 °C 37.6 °F /  3.1 °C 30in /  1014.2hPa Calm     97% 0in /  0.0mm 0 W/m2
22:34 38.3 °F /  3.5 °C 37.6 °F /  3.1 °C 30in /  1014.2hPa Calm   1mph /  1.6km/h 97% 0in /  0.0mm 0 W/m2
22:39 38.5 °F /  3.6 °C 37.8 °F /  3.2 °C 30in /  1014.2hPa Calm     97% 0in /  0.0mm 0 W/m2
22:44 38.5 °F /  3.6 °C 37.8 °F /  3.2 °C 29.9in /  1013.9hPa SE 0.9mph /  1.4km/h 1mph /  1.6km/h 97% 0in /  0.0mm 0 W/m2
22:49 38.5 °F /  3.6 °C 37.8 °F /  3.2 °C 29.9in /  1013.9hPa NE 0.9mph /  1.4km/h 2mph /  3.2km/h 97% 0in /  0.0mm 0 W/m2
22:54 38.7 °F /  3.7 °C 37.9 °F /  3.3 °C 29.9in /  1013.9hPa Calm     97% 0in /  0.0mm 0 W/m2
23:00 38.7 °F /  3.7 °C 37.9 °F /  3.3 °C 29.9in /  1013.9hPa ENE 0.9mph /  1.4km/h 1mph /  1.6km/h 97% 0in /  0.0mm 0 W/m2
23:05 38.7 °F /  3.7 °C 37.9 °F /  3.3 °C 29.9in /  1013.9hPa Calm     97% 0in /  0.0mm 0 W/m2
23:10 38.7 °F /  3.7 °C 37.9 °F /  3.3 °C 29.9in /  1013.9hPa Calm     97% 0in /  0.0mm 0 W/m2
23:15 38.7 °F /  3.7 °C 37.9 °F /  3.3 °C 29.9in /  1013.9hPa Calm   2mph /  3.2km/h 97% 0in /  0.0mm 0 W/m2
23:20 38.7 °F /  3.7 °C 37.9 °F /  3.3 °C 29.9in /  1013.9hPa ENE 0.9mph /  1.4km/h 2mph /  3.2km/h 97% 0in /  0.0mm 0 W/m2
23:25 38.7 °F /  3.7 °C 37.9 °F /  3.3 °C 29.9in /  1013.9hPa ENE 0.9mph /  1.4km/h 1mph /  1.6km/h 97% 0in /  0.0mm 0 W/m2
23:30 38.7 °F /  3.7 °C 37.9 °F /  3.3 °C 29.9in /  1013.9hPa Calm     97% 0in /  0.0mm 0 W/m2
23:35 38.5 °F /  3.6 °C 37.8 °F /  3.2 °C 29.9in /  1013.9hPa Calm     97% 0in /  0.0mm 0 W/m2
23:40 38.5 °F /  3.6 °C 37.8 °F /  3.2 °C 29.9in /  1013.9hPa East 0.9mph /  1.4km/h 2mph /  3.2km/h 97% 0in /  0.0mm 0 W/m2
23:45 38.5 °F /  3.6 °C 37.8 °F /  3.2 °C 29.9in /  1013.9hPa Calm   1mph /  1.6km/h 97% 0in /  0.0mm 0 W/m2
23:50 38.7 °F /  3.7 °C 37.9 °F /  3.3 °C 29.9in /  1013.5hPa East 0.9mph /  1.4km/h 2mph /  3.2km/h 97% 0in /  0.0mm 0 W/m2
23:55 38.7 °F /  3.7 °C 37.9 °F /  3.3 °C 29.9in /  1013.5hPa Calm   1mph /  1.6km/h 97% 0in /  0.0mm 0 W/m2
Juneau County Weather
Compliments of Weather Underground - 4 mb